Pagrindinis puslapis
METAR-TAF:

METAR-TAF

Oro uostai :

Valjadolidas, Ispanija

platuma: 41-43N, ilguma: 004-51W, Aukštis: 849 m

Dabartinis oras

Ataskaita buvo paskelbta 33 minutes, ne 14:00 UTC
Vėjas 7 kt nuo kintamojo kryptimis
Temperatūra 13°C
Drėgmė 47%
Slėgis 1009 hPa
Matomumas 10 km arba daugiau
Išsisklaidę debesys ne aukštis 4700 ft

METAR: LEVD 251400Z VRB07KT 9999 SCT047 13/02 Q1009

Laikas: 16:33 (14:33 UTC)

Prognozė

Ataskaita buvo paskelbta 33 minutes, ne 14:00 UTC
Prognozė galioja nuo 25 metu 15 UTC su 26 metu 15 UTC
Vėjas 8 kt iš Vakarų
Matomumas 10 km arba daugiau
nėra debesų žemiau 1500 m ir nėra kamuolinių lietaus debesų
Tikimybė 40% :
Laikinai
nuo 25 metu 15 UTC su 25 metu 20 UTC
Vėjas 10 kt iš Vakarų/Šiaurės Vakarų
Tikimybė 40% :
Laikinai
nuo 26 metu 04 UTC su 26 metu 08 UTC
Matomumas: 3000 m
Su prošvaistėmis ne aukštis 800 ft
rūkana,

TAF: LEVD 251400Z 2515/2615 27008KT CAVOK TX16/2615Z TN05/2606Z PROB40 TEMPO 2515/2520 30010KT PROB40 TEMPO 2604/2608 3000 BR BKN008

Orai ataskaitas ir orų prognozės (METAR, TAF).

turimą stotys yra geltonos ir raudonos taškus žemėlapyje.

Perkelti pele per norėdami pamatyti stoties vardą.

Tada spustelėkite, norėdami matyti oro stebėjimo ir prognozės.

Norėdami pakeisti žemėlapį: spustelėkite ant žalios mygtukų su juodo kryžiaus žemyn,; žalią mygtuką su brūkšneliu, jei norite nutolinti; arba žalių rodyklių gretimoms žemėlapius.


METAR-TAF: